Terminal Aerodrome Forecast
Issued by NWS

Home | Current Version | Previous Version | Text Only | Print | Product List | Glossary On
Versions: 1 2 3 4 5 6 7 8 9 10 11 12 13 14 15 16
000
FTUS41 KGYX 271720
TAFHIE
TAF
KHIE 271720Z 2718/2818 VRB03KT P6SM BKN050
      TEMPO 2718/2721 -SHRA
     FM272100 27008KT P6SM BKN050
     FM272300 VRB03KT P6SM SCT050
     FM280700 00000KT 2SM BR BKN002
     FM281200 32007KT P6SM SKC=

USA.gov is the U.S. government's official web portal to all federal, state and local government web resources and services.